Time;durP1;ratioP1;P1;durP2;ratioP2;P2;SDS_P1;SDS_P2;PMS_P1;PMS_P2;Temp;Humidity;BMP_temperature;BMP_pressure;BME280_temperature;BME280_humidity;BME280_pressure;Samples;Min_cycle;Max_cycle;Signal;HPM_P1;HPM_P2
2023/01/01 00:02:23;;;;;;;22.67;13.13;;;14.40;72.70;;;;;;5061701;28;20070;-78
2023/01/01 00:04:50;;;;;;;25.58;14.85;;;14.40;72.90;;;;;;5040064;28;20549;-79
2023/01/01 00:07:17;;;;;;;27.98;16.42;;;14.40;72.80;;;;;;5071077;28;20525;-78
2023/01/01 00:12:31;;;;;;;45.78;30.10;;;14.30;73.30;;;;;;5052091;28;20974;-77
2023/01/01 00:14:59;;;;;;;39.83;24.25;;;14.30;73.70;;;;;;5044345;28;20146;-79
2023/01/01 00:17:28;;;;;;;51.05;35.03;;;14.30;73.80;;;;;;5042641;28;20179;-77
2023/01/01 00:19:57;;;;;;;51.03;34.03;;;14.20;73.80;;;;;;5036706;28;20044;-77
2023/01/01 00:22:24;;;;;;;47.60;32.20;;;14.20;74.20;;;;;;5044974;28;20187;-77
2023/01/01 00:24:52;;;;;;;41.88;29.60;;;14.20;74.70;;;;;;5057715;28;20268;-76
2023/01/01 00:27:19;;;;;;;47.35;30.38;;;14.10;74.70;;;;;;5064375;28;20064;-77
2023/01/01 00:29:46;;;;;;;41.03;25.00;;;14.10;75.00;;;;;;5056657;28;20049;-78
2023/01/01 00:32:14;;;;;;;39.67;23.90;;;14.10;75.00;;;;;;5047276;28;20491;-78
2023/01/01 00:34:41;;;;;;;34.87;23.83;;;14.00;75.20;;;;;;5047401;28;20060;-77
2023/01/01 00:37:08;;;;;;;30.80;20.58;;;14.00;75.20;;;;;;5048272;28;20290;-77
2023/01/01 00:39:35;;;;;;;34.92;20.58;;;14.00;74.90;;;;;;5046546;28;20528;-77
2023/01/01 00:42:03;;;;;;;30.33;20.17;;;14.00;75.30;;;;;;5048251;28;20045;-77
2023/01/01 00:44:30;;;;;;;28.90;18.65;;;14.00;75.20;;;;;;5053248;28;20077;-77
2023/01/01 00:46:57;;;;;;;30.93;17.23;;;14.00;74.90;;;;;;5046622;28;20053;-77
2023/01/01 00:49:26;;;;;;;27.92;16.80;;;14.00;74.80;;;;;;5052375;28;20260;-77
2023/01/01 00:51:54;;;;;;;29.40;17.27;;;14.00;74.80;;;;;;5038259;28;21026;-77
2023/01/01 00:54:21;;;;;;;24.52;15.50;;;13.90;75.10;;;;;;5060808;28;20046;-78
2023/01/01 00:56:48;;;;;;;27.95;16.17;;;13.90;75.30;;;;;;5066785;28;20107;-78
2023/01/01 00:59:15;;;;;;;30.33;15.83;;;13.90;75.50;;;;;;5055787;28;20076;-80
2023/01/01 01:01:42;;;;;;;26.35;15.57;;;13.90;75.30;;;;;;5059605;28;20303;-78
2023/01/01 01:04:09;;;;;;;23.88;14.88;;;13.90;75.20;;;;;;5074984;28;20182;-77
2023/01/01 01:06:37;;;;;;;27.70;15.55;;;13.90;74.80;;;;;;5070783;28;20140;-77
2023/01/01 01:09:05;;;;;;;26.60;15.63;;;13.90;74.70;;;;;;5061902;28;20053;-78
2023/01/01 01:11:33;;;;;;;23.43;14.90;;;14.00;74.50;;;;;;5039392;28;20049;-77
2023/01/01 01:14:00;;;;;;;26.10;15.20;;;14.00;74.50;;;;;;5041702;28;21040;-77
2023/01/01 01:16:29;;;;;;;27.85;15.60;;;14.00;74.60;;;;;;5041692;28;20057;-78
2023/01/01 01:18:59;;;;;;;26.30;16.65;;;13.90;74.50;;;;;;5031814;28;20144;-77
2023/01/01 01:21:28;;;;;;;26.88;15.98;;;14.00;74.20;;;;;;5068109;28;20048;-78
2023/01/01 01:23:59;;;;;;;24.40;14.50;;;14.00;74.00;;;;;;5074912;28;20044;-78
2023/01/01 01:26:29;;;;;;;29.58;15.55;;;14.00;74.20;;;;;;5038681;28;22484;-77
2023/01/01 01:28:57;;;;;;;25.30;14.45;;;14.00;73.80;;;;;;5059541;28;20463;-76
2023/01/01 01:31:27;;;;;;;29.30;15.93;;;14.00;73.80;;;;;;5076512;28;20055;-78
2023/01/01 01:33:54;;;;;;;28.25;16.00;;;14.00;73.90;;;;;;5080094;28;20072;-78
2023/01/01 01:36:21;;;;;;;23.93;14.47;;;14.00;73.60;;;;;;5043879;28;20444;-78
2023/01/01 01:38:49;;;;;;;26.58;14.90;;;14.00;73.70;;;;;;5079128;28;20350;-77
2023/01/01 01:41:20;;;;;;;24.58;15.10;;;14.10;73.80;;;;;;5067757;28;20638;-77
2023/01/01 01:43:52;;;;;;;24.58;13.82;;;14.10;73.60;;;;;;5087855;28;20051;-78
2023/01/01 01:46:24;;;;;;;26.52;13.35;;;14.10;73.70;;;;;;5074379;28;20056;-78
2023/01/01 01:48:52;;;;;;;25.63;14.47;;;14.10;73.80;;;;;;5063037;28;20470;-79
2023/01/01 01:51:24;;;;;;;22.75;12.88;;;14.10;73.90;;;;;;5075421;28;20271;-78
2023/01/01 01:53:56;;;;;;;23.15;13.50;;;14.00;74.00;;;;;;5066302;28;20045;-78
2023/01/01 01:56:40;;;;;;;23.92;13.32;;;14.00;74.10;;;;;;5036586;28;20143;-78
2023/01/01 01:59:08;;;;;;;21.25;12.23;;;14.00;74.30;;;;;;5061069;28;20616;-78
2023/01/01 02:01:35;;;;;;;20.60;10.77;;;14.10;74.20;;;;;;5084123;28;20123;-77
2023/01/01 02:04:04;;;;;;;24.33;12.80;;;14.10;74.10;;;;;;5054063;28;20772;-77
2023/01/01 02:06:33;;;;;;;21.42;11.68;;;14.10;74.10;;;;;;5079042;28;20132;-78
2023/01/01 02:09:03;;;;;;;19.45;11.80;;;14.00;74.10;;;;;;5073527;28;20075;-77
2023/01/01 02:11:32;;;;;;;24.95;13.00;;;14.10;74.30;;;;;;5084254;28;20496;-77
2023/01/01 02:14:01;;;;;;;21.27;11.50;;;14.10;74.30;;;;;;5051726;28;20128;-78
2023/01/01 02:16:36;;;;;;;20.98;9.43;;;14.00;74.20;;;;;;5064801;28;21344;-77
2023/01/01 02:19:11;;;;;;;20.45;11.32;;;14.10;74.20;;;;;;5063459;28;20081;-78
2023/01/01 02:21:47;;;;;;;23.55;11.57;;;14.10;74.10;;;;;;5051641;28;20081;-79
2023/01/01 02:24:33;;;;;;;17.35;8.70;;;14.10;74.10;;;;;;5074726;28;20159;-78
2023/01/01 02:27:06;;;;;;;20.03;11.20;;;14.10;73.90;;;;;;5074101;28;20057;-77
2023/01/01 02:29:40;;;;;;;22.23;10.27;;;14.00;74.10;;;;;;5054320;28;21219;-78
2023/01/01 02:32:11;;;;;;;23.58;10.50;;;14.10;73.80;;;;;;5082177;28;20076;-77
2023/01/01 02:34:41;;;;;;;17.67;8.77;;;14.10;73.70;;;;;;5066662;28;20923;-78
2023/01/01 02:37:12;;;;;;;19.33;9.80;;;14.10;73.30;;;;;;5054881;28;20186;-78
2023/01/01 02:39:45;;;;;;;22.97;9.63;;;14.10;73.20;;;;;;5055529;28;20930;-78
2023/01/01 02:42:13;;;;;;;19.70;8.80;;;14.10;73.40;;;;;;5058779;28;20910;-77
2023/01/01 02:44:45;;;;;;;16.55;8.38;;;14.10;73.20;;;;;;5059963;28;20505;-78
2023/01/01 02:47:17;;;;;;;17.35;7.78;;;14.10;72.80;;;;;;5033792;28;20068;-79
2023/01/01 02:50:02;;;;;;;19.27;8.45;;;14.10;72.90;;;;;;5054350;28;20045;-78
2023/01/01 02:53:02;;;;;;;17.37;8.07;;;14.10;72.70;;;;;;5058236;28;20677;-78
2023/01/01 02:55:39;;;;;;;18.20;7.88;;;14.10;72.80;;;;;;5041912;28;20658;-77
2023/01/01 03:01:09;;;;;;;16.45;7.20;;;14.10;72.50;;;;;;5044279;28;20057;-77
2023/01/01 03:03:40;;;;;;;15.65;6.70;;;14.10;72.30;;;;;;5066618;28;20075;-79
2023/01/01 03:06:23;;;;;;;15.27;6.17;;;14.10;72.20;;;;;;5066333;28;20049;-77
2023/01/01 03:08:55;;;;;;;13.00;5.60;;;14.10;71.70;;;;;;5058929;28;20283;-78
2023/01/01 03:11:25;;;;;;;12.93;5.55;;;14.10;71.50;;;;;;5064675;28;20060;-77
2023/01/01 03:13:58;;;;;;;15.30;5.20;;;14.20;71.30;;;;;;5062863;28;20048;-78
2023/01/01 03:16:33;;;;;;;13.40;4.82;;;14.20;70.80;;;;;;5061425;28;20088;-77
2023/01/01 03:19:12;;;;;;;9.00;3.80;;;14.20;70.70;;;;;;5078793;28;20048;-79
2023/01/01 03:21:43;;;;;;;9.43;3.58;;;14.30;70.50;;;;;;5044295;28;20630;-79
2023/01/01 03:24:24;;;;;;;11.88;3.78;;;14.30;70.70;;;;;;5060968;28;20048;-77
2023/01/01 03:26:57;;;;;;;11.70;3.33;;;14.30;70.60;;;;;;5058628;28;20135;-77
2023/01/01 03:29:26;;;;;;;9.60;3.03;;;14.30;70.20;;;;;;5075514;28;20059;-78
2023/01/01 03:31:57;;;;;;;8.40;3.03;;;14.30;70.20;;;;;;5076055;28;20131;-77
2023/01/01 03:34:31;;;;;;;10.75;3.30;;;14.40;70.00;;;;;;5066979;28;20260;-78
2023/01/01 03:37:04;;;;;;;8.10;2.80;;;14.40;70.10;;;;;;5051845;28;20060;-78
2023/01/01 03:39:36;;;;;;;12.02;2.60;;;14.40;69.40;;;;;;5052316;28;20045;-77
2023/01/01 03:42:11;;;;;;;10.50;2.60;;;14.50;69.40;;;;;;5077277;28;20484;-77
2023/01/01 03:44:44;;;;;;;7.93;2.27;;;14.50;69.50;;;;;;5073280;28;20052;-77
2023/01/01 03:47:13;;;;;;;7.20;2.20;;;14.50;69.00;;;;;;5047536;28;20252;-78
2023/01/01 03:49:40;;;;;;;8.52;2.20;;;14.50;68.90;;;;;;5070222;28;20429;-79
2023/01/01 03:52:30;;;;;;;13.25;2.55;;;14.50;68.90;;;;;;5086136;27;20099;-78
2023/01/01 03:55:06;;;;;;;9.95;2.80;;;14.60;68.40;;;;;;5057671;28;20121;-77
2023/01/01 03:57:41;;;;;;;8.40;2.67;;;14.50;68.60;;;;;;5058168;28;20056;-78
2023/01/01 04:00:15;;;;;;;10.02;2.45;;;14.60;68.00;;;;;;5074100;28;20362;-77
2023/01/01 04:02:49;;;;;;;8.63;2.90;;;14.60;68.10;;;;;;5056540;28;20081;-78
2023/01/01 04:05:18;;;;;;;8.70;2.30;;;14.60;68.20;;;;;;5044376;28;20056;-77
2023/01/01 04:07:46;;;;;;;7.47;2.17;;;14.60;67.90;;;;;;5065375;28;20049;-77
2023/01/01 04:10:19;;;;;;;9.53;2.50;;;14.60;68.20;;;;;;5070943;28;20048;-78
2023/01/01 04:12:48;;;;;;;8.32;2.50;;;14.60;67.70;;;;;;5056758;28;20248;-77
2023/01/01 04:15:16;;;;;;;9.88;2.72;;;14.70;67.50;;;;;;5071492;28;20076;-78
2023/01/01 04:17:44;;;;;;;12.85;2.50;;;14.60;67.60;;;;;;5067050;28;20049;-77
2023/01/01 04:20:12;;;;;;;9.55;2.25;;;14.60;67.60;;;;;;5047621;28;20041;-77
2023/01/01 04:22:40;;;;;;;8.30;1.80;;;14.70;67.10;;;;;;5050232;28;20635;-79
2023/01/01 04:25:09;;;;;;;10.32;2.15;;;14.70;67.60;;;;;;5041271;28;20256;-78
2023/01/01 04:27:36;;;;;;;9.10;2.42;;;14.70;67.30;;;;;;5057189;28;20045;-77
2023/01/01 04:30:04;;;;;;;7.82;1.90;;;14.70;67.50;;;;;;5077867;28;20142;-78
2023/01/01 04:32:32;;;;;;;9.88;2.30;;;14.70;67.90;;;;;;5074344;28;20045;-77
2023/01/01 04:35:00;;;;;;;8.50;2.37;;;14.60;68.30;;;;;;5061941;28;20147;-77
2023/01/01 04:37:28;;;;;;;9.52;1.88;;;14.60;68.50;;;;;;5036624;28;20240;-77
2023/01/01 04:39:55;;;;;;;4.90;1.50;;;14.60;68.60;;;;;;5053108;28;20132;-78
2023/01/01 04:42:22;;;;;;;7.82;2.20;;;14.60;69.30;;;;;;5075652;28;20064;-76
2023/01/01 04:44:49;;;;;;;6.40;1.67;;;14.50;69.90;;;;;;5068016;28;20166;-76
2023/01/01 04:47:16;;;;;;;9.07;2.17;;;14.50;70.10;;;;;;5059095;28;20123;-77
2023/01/01 04:49:43;;;;;;;7.80;2.20;;;14.40;70.20;;;;;;5061199;28;20781;-77
2023/01/01 04:52:11;;;;;;;10.50;2.20;;;14.40;70.10;;;;;;5078213;28;20144;-78
2023/01/01 04:54:38;;;;;;;7.65;2.08;;;14.40;70.20;;;;;;5052204;28;20140;-77
2023/01/01 04:57:06;;;;;;;8.25;1.65;;;14.30;70.40;;;;;;5053903;28;20053;-77
2023/01/01 04:59:33;;;;;;;7.43;2.23;;;14.30;70.30;;;;;;5049433;28;20059;-78
2023/01/01 05:02:00;;;;;;;8.43;1.90;;;14.20;70.20;;;;;;5063860;28;20255;-78
2023/01/01 05:04:27;;;;;;;8.75;1.80;;;14.20;70.20;;;;;;5061594;28;20084;-78
2023/01/01 05:06:54;;;;;;;6.78;1.30;;;14.20;69.80;;;;;;5062523;28;20138;-77
2023/01/01 05:09:23;;;;;;;10.40;1.63;;;14.20;69.50;;;;;;5072631;28;20094;-78
2023/01/01 05:11:50;;;;;;;7.77;1.53;;;14.20;69.40;;;;;;5046187;28;20499;-77
2023/01/01 05:14:17;;;;;;;8.90;2.08;;;14.20;69.70;;;;;;5064691;28;20257;-77
2023/01/01 05:16:44;;;;;;;8.68;1.92;;;14.20;69.30;;;;;;5056142;28;20045;-77
2023/01/01 05:19:11;;;;;;;6.45;1.45;;;14.20;69.50;;;;;;5072786;28;20140;-77
2023/01/01 05:21:40;;;;;;;8.65;1.70;;;14.20;69.40;;;;;;5079979;28;20570;-77
2023/01/01 05:24:10;;;;;;;6.77;1.53;;;14.20;69.30;;;;;;5040794;28;20049;-77
2023/01/01 05:26:41;;;;;;;10.52;1.70;;;14.20;69.30;;;;;;5073934;28;20260;-77
2023/01/01 05:29:09;;;;;;;6.63;1.30;;;14.20;69.40;;;;;;5062848;28;20051;-79
2023/01/01 05:31:37;;;;;;;7.40;1.60;;;14.10;69.40;;;;;;5054239;28;20921;-78
2023/01/01 05:34:05;;;;;;;5.65;1.50;;;14.20;69.40;;;;;;5036804;28;20053;-77
2023/01/01 05:36:37;;;;;;;6.67;1.37;;;14.10;69.10;;;;;;5060274;28;20057;-77
2023/01/01 05:39:05;;;;;;;6.72;1.02;;;14.10;68.70;;;;;;5067375;28;20354;-77
2023/01/01 05:41:34;;;;;;;5.40;1.10;;;14.20;68.10;;;;;;5078580;28;20060;-77
2023/01/01 05:44:05;;;;;;;5.75;0.95;;;14.10;68.40;;;;;;5063357;28;20060;-78
2023/01/01 05:46:32;;;;;;;6.10;1.15;;;14.10;67.60;;;;;;5071868;28;20521;-77
2023/01/01 05:49:00;;;;;;;5.17;1.10;;;14.10;67.10;;;;;;5063479;28;20072;-77
2023/01/01 05:51:29;;;;;;;5.85;0.93;;;14.00;67.50;;;;;;5059198;28;20243;-77
2023/01/01 05:53:57;;;;;;;5.53;0.80;;;14.00;67.20;;;;;;5062570;28;20041;-78
2023/01/01 05:56:25;;;;;;;4.45;1.00;;;14.00;67.60;;;;;;5071387;28;20060;-78
2023/01/01 05:58:52;;;;;;;4.32;0.68;;;13.90;67.80;;;;;;5071101;28;20051;-79
2023/01/01 06:01:22;;;;;;;5.93;1.27;;;13.90;68.00;;;;;;5068086;28;20053;-76
2023/01/01 06:03:50;;;;;;;5.95;1.30;;;13.90;68.30;;;;;;5076024;28;20255;-77
2023/01/01 06:06:19;;;;;;;7.28;0.95;;;13.90;68.20;;;;;;5058167;28;20072;-77
2023/01/01 06:08:50;;;;;;;6.43;0.98;;;13.90;68.20;;;;;;5064537;28;20132;-77
2023/01/01 06:11:18;;;;;;;5.15;0.82;;;13.80;68.20;;;;;;5067677;28;20055;-78
2023/01/01 06:13:45;;;;;;;5.37;0.80;;;13.70;68.30;;;;;;5065381;28;20045;-78
2023/01/01 06:16:13;;;;;;;6.93;1.00;;;13.70;68.40;;;;;;5064877;28;20274;-77
2023/01/01 06:18:42;;;;;;;4.75;1.08;;;13.70;68.10;;;;;;5059347;28;20053;-79
2023/01/01 06:21:12;;;;;;;5.97;0.85;;;13.70;68.20;;;;;;5073798;28;20050;-77
2023/01/01 06:23:39;;;;;;;4.07;0.90;;;13.70;68.20;;;;;;5061603;28;20051;-78
2023/01/01 06:26:08;;;;;;;3.57;0.57;;;13.60;68.30;;;;;;5063045;28;20037;-79
2023/01/01 06:28:36;;;;;;;5.00;0.88;;;13.60;68.10;;;;;;5073372;28;20284;-79
2023/01/01 06:31:05;;;;;;;5.32;0.70;;;13.60;68.00;;;;;;5077386;28;20096;-77
2023/01/01 06:33:32;;;;;;;4.72;0.93;;;13.50;68.30;;;;;;5058234;28;20084;-78
2023/01/01 06:36:05;;;;;;;6.47;0.90;;;13.50;68.10;;;;;;5052306;28;20442;-78
2023/01/01 06:38:32;;;;;;;5.77;0.90;;;13.50;68.20;;;;;;5056678;28;20091;-78
2023/01/01 06:41:00;;;;;;;5.82;1.02;;;13.50;68.30;;;;;;5063408;28;21237;-78
2023/01/01 06:43:29;;;;;;;5.97;0.98;;;13.50;68.60;;;;;;5060734;28;20080;-79
2023/01/01 06:46:01;;;;;;;6.40;1.10;;;13.50;68.70;;;;;;5056909;28;20084;-77
2023/01/01 06:48:29;;;;;;;7.20;1.20;;;13.50;69.00;;;;;;5060816;28;20116;-79
2023/01/01 06:50:56;;;;;;;4.60;1.03;;;13.50;69.00;;;;;;5071249;28;20148;-78
2023/01/01 06:53:28;;;;;;;6.72;1.40;;;13.30;69.30;;;;;;5064751;28;20347;-78
2023/01/01 06:55:55;;;;;;;5.70;1.10;;;13.40;69.30;;;;;;5061661;28;20534;-78
2023/01/01 06:58:22;;;;;;;5.75;1.00;;;13.30;69.50;;;;;;5068067;28;20072;-78
2023/01/01 07:00:49;;;;;;;6.30;0.95;;;13.30;69.60;;;;;;5059689;28;20056;-77
2023/01/01 07:03:16;;;;;;;8.47;1.40;;;13.30;69.70;;;;;;5058868;28;20044;-79
2023/01/01 07:05:43;;;;;;;6.35;1.02;;;13.30;69.40;;;;;;5053499;28;20760;-77
2023/01/01 07:08:10;;;;;;;9.43;1.38;;;13.30;69.30;;;;;;5052864;28;20622;-77
2023/01/01 07:10:39;;;;;;;8.15;1.20;;;13.20;69.70;;;;;;5086836;28;20532;-79
2023/01/01 07:13:06;;;;;;;6.45;1.00;;;13.20;69.70;;;;;;5065147;28;20049;-78
2023/01/01 07:15:33;;;;;;;7.63;1.30;;;13.10;69.90;;;;;;5080031;28;20061;-78
2023/01/01 07:18:00;;;;;;;6.70;1.05;;;13.20;69.80;;;;;;5046365;28;20292;-78
2023/01/01 07:20:27;;;;;;;9.90;1.10;;;13.10;70.20;;;;;;5067855;28;20053;-78
2023/01/01 07:22:54;;;;;;;8.05;1.35;;;13.10;70.40;;;;;;5060651;28;20084;-77
2023/01/01 07:25:21;;;;;;;7.75;1.50;;;13.10;70.30;;;;;;5045309;28;21139;-78
2023/01/01 07:27:50;;;;;;;8.10;1.57;;;13.10;70.30;;;;;;5063452;28;20040;-79
2023/01/01 07:30:17;;;;;;;6.43;1.00;;;13.10;70.20;;;;;;5037937;28;20327;-79
2023/01/01 07:32:44;;;;;;;6.97;1.10;;;13.00;70.20;;;;;;5056472;28;20048;-79
2023/01/01 07:35:11;;;;;;;7.45;1.05;;;13.00;70.20;;;;;;5083200;28;20130;-78
2023/01/01 07:37:38;;;;;;;7.05;1.23;;;13.00;70.20;;;;;;4950413;28;20104;-78
2023/01/01 07:40:06;;;;;;;6.47;1.03;;;13.00;70.30;;;;;;5047017;28;20749;-79
2023/01/01 07:42:34;;;;;;;8.27;1.50;;;13.00;69.90;;;;;;5064759;28;20371;-79
2023/01/01 07:45:02;;;;;;;8.30;1.15;;;13.00;69.60;;;;;;5046192;28;20060;-79
2023/01/01 07:47:29;;;;;;;8.00;0.95;;;13.00;69.40;;;;;;5061368;28;20053;-79
2023/01/01 07:49:56;;;;;;;4.50;1.05;;;13.00;69.30;;;;;;5047615;28;20069;-80
2023/01/01 07:52:23;;;;;;;7.03;1.03;;;12.90;69.70;;;;;;5050945;28;20048;-80
2023/01/01 07:54:51;;;;;;;8.65;1.33;;;12.90;69.60;;;;;;5046785;28;20256;-77
2023/01/01 07:57:18;;;;;;;6.30;0.82;;;12.90;69.60;;;;;;5067803;28;20056;-79
2023/01/01 07:59:45;;;;;;;3.92;0.60;;;12.90;69.70;;;;;;5049330;28;20098;-78
2023/01/01 08:02:13;;;;;;;8.98;1.30;;;12.90;69.70;;;;;;5048847;28;20128;-78
2023/01/01 08:04:40;;;;;;;7.47;0.80;;;12.90;69.60;;;;;;5054655;28;20056;-77
2023/01/01 08:07:07;;;;;;;11.38;1.20;;;12.90;69.60;;;;;;5070471;28;21073;-79
2023/01/01 08:09:34;;;;;;;9.10;1.15;;;12.80;70.00;;;;;;5054505;28;20041;-79
2023/01/01 08:12:02;;;;;;;5.72;0.70;;;12.80;69.60;;;;;;5045744;28;20050;-78
2023/01/01 08:14:29;;;;;;;9.90;1.40;;;12.80;69.70;;;;;;5051413;28;20122;-79
2023/01/01 08:16:56;;;;;;;7.03;1.00;;;12.80;70.00;;;;;;5067621;28;20120;-78
2023/01/01 08:19:25;;;;;;;8.77;1.48;;;12.80;70.00;;;;;;5056322;28;20253;-77
2023/01/01 08:21:52;;;;;;;9.98;1.40;;;12.80;70.20;;;;;;5029681;28;20033;-78
2023/01/01 08:24:19;;;;;;;9.32;1.70;;;12.80;70.20;;;;;;5055634;28;20045;-78
2023/01/01 08:26:49;;;;;;;8.52;1.15;;;12.70;70.40;;;;;;5040097;28;20104;-77
2023/01/01 08:29:17;;;;;;;5.93;1.00;;;12.70;70.40;;;;;;5049032;28;20132;-77
2023/01/01 08:31:44;;;;;;;9.05;1.20;;;12.70;70.70;;;;;;5037138;28;20307;-79
2023/01/01 08:34:11;;;;;;;9.85;1.05;;;12.70;70.50;;;;;;5055879;28;20045;-78
2023/01/01 08:36:40;;;;;;;7.97;1.10;;;12.70;70.70;;;;;;5041051;28;20552;-77
2023/01/01 08:39:07;;;;;;;8.90;1.15;;;12.70;70.90;;;;;;5045500;28;21643;-78
2023/01/01 08:41:35;;;;;;;8.13;1.10;;;12.70;70.80;;;;;;5056024;28;20051;-77
2023/01/01 08:44:02;;;;;;;8.48;1.30;;;12.60;70.90;;;;;;5047865;28;20255;-77
2023/01/01 08:46:29;;;;;;;8.32;1.20;;;12.60;71.10;;;;;;5053730;28;20097;-77
2023/01/01 08:48:56;;;;;;;9.73;1.33;;;12.50;71.10;;;;;;5035509;28;20128;-77
2023/01/01 08:51:23;;;;;;;8.63;1.15;;;12.50;71.10;;;;;;5029452;28;20881;-78
2023/01/01 08:53:52;;;;;;;5.33;0.83;;;12.50;71.00;;;;;;5052360;28;20065;-78
2023/01/01 08:56:19;;;;;;;8.45;1.35;;;12.50;71.00;;;;;;5071950;28;20303;-77
2023/01/01 08:58:46;;;;;;;9.60;1.30;;;12.50;71.00;;;;;;5034253;28;20462;-79
2023/01/01 09:01:16;;;;;;;9.30;1.10;;;12.50;71.00;;;;;;5068708;28;20992;-81
2023/01/01 09:03:44;;;;;;;8.25;0.82;;;12.50;71.10;;;;;;5031399;28;20053;-81
2023/01/01 09:06:11;;;;;;;7.03;0.83;;;12.50;71.20;;;;;;5045756;28;20156;-84
2023/01/01 09:08:40;;;;;;;11.55;1.60;;;12.50;71.40;;;;;;5048126;28;20393;-82
2023/01/01 09:11:21;;;;;;;8.48;0.90;;;12.50;71.40;;;;;;5070082;28;20148;-83
2023/01/01 09:13:48;;;;;;;5.40;0.65;;;12.50;71.20;;;;;;5050221;28;20041;-79
2023/01/01 09:16:17;;;;;;;8.05;1.30;;;12.50;71.20;;;;;;5064477;28;20040;-79
2023/01/01 09:18:44;;;;;;;7.17;1.17;;;12.50;71.40;;;;;;5049667;28;20049;-82
2023/01/01 09:21:11;;;;;;;8.52;1.27;;;12.50;71.50;;;;;;5035102;28;20337;-80
2023/01/01 09:23:38;;;;;;;8.93;1.65;;;12.50;71.50;;;;;;5055446;28;20065;-80
2023/01/01 09:26:06;;;;;;;8.02;0.85;;;12.50;71.60;;;;;;5062602;28;20094;-81
2023/01/01 09:28:35;;;;;;;11.15;2.00;;;12.50;71.60;;;;;;5057872;28;20542;-81
2023/01/01 09:31:05;;;;;;;7.20;1.00;;;12.50;71.60;;;;;;5072954;28;20103;-80
2023/01/01 09:33:32;;;;;;;12.95;1.38;;;12.40;71.70;;;;;;5067104;28;20263;-81
2023/01/01 09:36:13;;;;;;;9.55;1.10;;;12.40;71.80;;;;;;5043722;28;20053;-80
2023/01/01 09:38:40;;;;;;;8.75;1.40;;;12.40;72.10;;;;;;5054082;28;20053;-82
2023/01/01 09:41:16;;;;;;;7.85;1.00;;;12.40;72.00;;;;;;5054181;28;20549;-81
2023/01/01 09:43:54;;;;;;;7.23;0.97;;;12.30;72.20;;;;;;5054744;28;20083;-80
2023/01/01 09:46:24;;;;;;;10.32;1.15;;;12.30;72.10;;;;;;5056037;28;20963;-80
2023/01/01 09:48:56;;;;;;;7.15;0.93;;;12.30;72.10;;;;;;5036838;28;20052;-82
2023/01/01 09:51:27;;;;;;;7.80;1.02;;;12.30;72.10;;;;;;5055556;28;20556;-81
2023/01/01 09:53:58;;;;;;;7.05;0.88;;;12.30;72.00;;;;;;5050819;28;20053;-81
2023/01/01 09:56:28;;;;;;;8.63;1.13;;;12.30;71.90;;;;;;5052453;28;20459;-82
2023/01/01 09:58:58;;;;;;;7.10;0.93;;;12.30;71.70;;;;;;5054059;28;20259;-82
2023/01/01 10:05:41;;;;;;;9.15;1.27;;;12.30;71.60;;;;;;5045586;28;20049;-81
2023/01/01 10:08:17;;;;;;;9.85;1.15;;;12.30;71.30;;;;;;5050262;28;20049;-83
2023/01/01 10:10:51;;;;;;;9.20;1.23;;;12.30;71.40;;;;;;5060845;28;20163;-84
2023/01/01 10:13:25;;;;;;;12.18;1.42;;;12.30;71.40;;;;;;5041915;28;20406;-82
2023/01/01 10:15:58;;;;;;;9.48;1.23;;;12.30;71.10;;;;;;5051708;28;20065;-82
2023/01/01 10:18:29;;;;;;;10.25;1.27;;;12.30;70.80;;;;;;5055617;28;20708;-83
2023/01/01 10:21:02;;;;;;;9.30;0.90;;;12.30;70.90;;;;;;5057549;28;20098;-82
2023/01/01 10:23:35;;;;;;;10.50;1.20;;;12.30;71.10;;;;;;5054700;28;20052;-78
2023/01/01 10:26:09;;;;;;;8.75;1.10;;;12.30;71.30;;;;;;5077770;28;20748;-79
2023/01/01 10:28:44;;;;;;;9.13;1.02;;;12.30;71.20;;;;;;5047961;28;20920;-79
2023/01/01 10:31:16;;;;;;;9.45;1.35;;;12.30;70.90;;;;;;5050752;28;20136;-79
2023/01/01 10:33:45;;;;;;;10.48;1.58;;;12.30;70.70;;;;;;5040501;28;20145;-82
2023/01/01 10:36:16;;;;;;;5.63;1.13;;;12.30;70.80;;;;;;5060255;28;20099;-82
2023/01/01 10:38:44;;;;;;;14.63;6.05;;;12.30;71.00;;;;;;5048649;28;20276;-82
2023/01/01 10:41:13;;;;;;;11.38;2.65;;;12.30;70.80;;;;;;5066492;28;20135;-81
2023/01/01 10:43:40;;;;;;;9.68;1.67;;;12.30;71.20;;;;;;5049269;28;20057;-84
2023/01/01 10:46:11;;;;;;;8.70;1.30;;;12.30;71.10;;;;;;5036896;28;20124;-82
2023/01/01 10:48:41;;;;;;;12.43;1.57;;;12.40;71.00;;;;;;5058597;28;20065;-83
2023/01/01 10:51:15;;;;;;;10.80;3.22;;;12.40;70.80;;;;;;5059815;28;21035;-80
2023/01/01 10:53:49;;;;;;;8.82;1.10;;;12.40;71.00;;;;;;5033521;28;20133;-81
2023/01/01 10:56:18;;;;;;;10.73;1.08;;;12.40;71.20;;;;;;5013036;28;20082;-82
2023/01/01 10:58:47;;;;;;;9.18;0.85;;;12.50;71.10;;;;;;5039645;28;20053;-82
2023/01/01 11:01:21;;;;;;;8.47;1.20;;;12.50;71.20;;;;;;5037538;28;20102;-80
2023/01/01 11:03:59;;;;;;;7.47;1.00;;;12.50;71.20;;;;;;5057499;28;20272;-80
2023/01/01 11:06:31;;;;;;;9.45;1.05;;;12.50;70.80;;;;;;5044491;28;20049;-80
2023/01/01 11:09:02;;;;;;;8.00;1.25;;;12.50;70.90;;;;;;5041473;28;20046;-82
2023/01/01 11:11:31;;;;;;;9.80;1.23;;;12.50;70.50;;;;;;5028026;28;20053;-83
2023/01/01 11:14:03;;;;;;;8.00;1.13;;;12.50;70.50;;;;;;5046464;28;20540;-80
2023/01/01 11:16:30;;;;;;;8.20;1.00;;;12.50;70.40;;;;;;5038677;28;20265;-79
2023/01/01 11:19:07;;;;;;;8.68;1.23;;;12.50;70.50;;;;;;5053131;28;20434;-81
2023/01/01 11:21:35;;;;;;;9.52;1.10;;;12.50;70.30;;;;;;5043815;28;20054;-81
2023/01/01 11:24:21;;;;;;;7.75;1.30;;;12.50;70.20;;;;;;5027082;28;20050;-82
2023/01/01 11:26:51;;;;;;;8.87;1.10;;;12.50;70.30;;;;;;5046419;28;20056;-81
2023/01/01 11:29:23;;;;;;;9.45;1.20;;;12.50;70.50;;;;;;5045042;28;20348;-80
2023/01/01 11:31:51;;;;;;;11.88;1.40;;;12.50;70.30;;;;;;5046718;28;20053;-79
2023/01/01 11:34:31;;;;;;;12.20;1.45;;;12.50;70.20;;;;;;5043218;28;20132;-80
2023/01/01 11:37:19;;;;;;;10.18;1.35;;;12.60;70.30;;;;;;5061315;28;20046;-80
2023/01/01 11:39:49;;;;;;;9.93;1.63;;;12.50;70.30;;;;;;5031826;28;20156;-80
2023/01/01 11:42:18;;;;;;;7.47;1.02;;;12.50;70.40;;;;;;5054505;28;20387;-82
2023/01/01 11:44:48;;;;;;;14.02;1.42;;;12.60;70.30;;;;;;5046419;28;20622;-82
2023/01/01 11:47:23;;;;;;;10.20;1.58;;;12.50;70.60;;;;;;5038269;28;20046;-82
2023/01/01 11:49:57;;;;;;;10.32;1.25;;;12.50;70.80;;;;;;5038986;28;20049;-80
2023/01/01 11:52:34;;;;;;;11.57;1.53;;;12.60;70.70;;;;;;5043795;28;20060;-80
2023/01/01 11:55:12;;;;;;;12.80;1.50;;;12.50;71.00;;;;;;5026836;28;21019;-80
2023/01/01 11:57:44;;;;;;;8.82;1.38;;;12.70;70.70;;;;;;5051311;28;20060;-82
2023/01/01 12:00:15;;;;;;;11.95;1.50;;;12.60;71.00;;;;;;5050276;28;20052;-80
2023/01/01 12:02:50;;;;;;;10.38;1.60;;;12.70;71.10;;;;;;5067476;28;20148;-79
2023/01/01 12:05:23;;;;;;;9.60;1.20;;;12.70;71.20;;;;;;5049545;28;20049;-79
2023/01/01 12:07:51;;;;;;;10.95;1.30;;;12.70;71.20;;;;;;5046049;28;20766;-85
2023/01/01 12:10:22;;;;;;;9.13;1.60;;;12.80;71.00;;;;;;5037417;28;20135;-83
2023/01/01 12:12:57;;;;;;;9.43;1.48;;;12.80;71.30;;;;;;5040136;28;20073;-82
2023/01/01 12:15:27;;;;;;;10.00;1.17;;;12.80;71.30;;;;;;5036989;28;20172;-82
2023/01/01 12:18:01;;;;;;;11.07;1.20;;;12.70;71.20;;;;;;5032282;28;20134;-83
2023/01/01 12:20:33;;;;;;;11.00;1.60;;;12.80;71.20;;;;;;5046772;28;20350;-79
2023/01/01 12:23:02;;;;;;;11.05;1.30;;;12.80;71.20;;;;;;5038258;28;20054;-82
2023/01/01 12:25:35;;;;;;;8.40;1.27;;;12.80;71.00;;;;;;5058138;28;20054;-81
2023/01/01 12:28:13;;;;;;;9.02;1.40;;;12.80;71.10;;;;;;5048794;28;20525;-81
2023/01/01 12:30:50;;;;;;;10.90;1.40;;;12.80;71.30;;;;;;5044026;28;20077;-79
2023/01/01 12:33:45;;;;;;;12.75;1.20;;;12.80;70.90;;;;;;5055097;28;20335;-82
2023/01/01 12:36:25;;;;;;;7.18;1.08;;;12.80;71.10;;;;;;5054616;28;20129;-78
2023/01/01 12:39:31;;;;;;;10.23;1.13;;;12.80;71.10;;;;;;5048364;28;20049;-79
2023/01/01 12:42:05;;;;;;;8.93;1.42;;;12.80;70.80;;;;;;5043586;28;20135;-78
2023/01/01 12:44:41;;;;;;;11.50;1.70;;;12.80;70.70;;;;;;5032776;28;20489;-78
2023/01/01 12:47:16;;;;;;;10.70;1.70;;;12.80;70.80;;;;;;5043227;28;20255;-79
2023/01/01 12:49:59;;;;;;;11.55;1.63;;;12.80;70.50;;;;;;5053469;28;20489;-79
2023/01/01 12:52:44;;;;;;;9.70;1.63;;;12.80;70.70;;;;;;5057868;28;20128;-80
2023/01/01 12:55:39;;;;;;;10.85;1.50;;;12.80;70.70;;;;;;5049261;28;20050;-78
2023/01/01 12:58:10;;;;;;;10.57;1.10;;;12.80;70.80;;;;;;5056600;28;20088;-80
2023/01/01 13:00:39;;;;;;;10.10;1.30;;;12.70;70.80;;;;;;5046196;28;20256;-81
2023/01/01 13:03:14;;;;;;;10.60;1.80;;;12.70;71.10;;;;;;5054876;28;20498;-79
2023/01/01 13:05:43;;;;;;;9.65;1.40;;;12.80;71.20;;;;;;5048025;28;20053;-78
2023/01/01 13:08:12;;;;;;;9.90;1.30;;;12.70;71.40;;;;;;5042229;28;20153;-80